sensor_id;sensor_type;location;lat;lon;timestamp;P1;durP1;ratioP1;P2;durP2;ratioP2
8952;SDS011;4511;50.890;8.054;2023-04-03T00:01:39;3.47;;;3.17;;
8952;SDS011;4511;50.890;8.054;2023-04-03T00:04:06;3.17;;;2.87;;
8952;SDS011;4511;50.890;8.054;2023-04-03T00:06:33;3.10;;;2.90;;
8952;SDS011;4511;50.890;8.054;2023-04-03T00:09:00;3.30;;;3.00;;
8952;SDS011;4511;50.890;8.054;2023-04-03T00:11:29;4.10;;;3.00;;
8952;SDS011;4511;50.890;8.054;2023-04-03T00:13:56;3.93;;;3.10;;
8952;SDS011;4511;50.890;8.054;2023-04-03T00:16:23;3.07;;;2.80;;
8952;SDS011;4511;50.890;8.054;2023-04-03T00:18:49;3.03;;;2.83;;
8952;SDS011;4511;50.890;8.054;2023-04-03T00:21:16;3.10;;;2.90;;
8952;SDS011;4511;50.890;8.054;2023-04-03T00:23:43;3.30;;;3.10;;
8952;SDS011;4511;50.890;8.054;2023-04-03T00:26:10;3.53;;;3.23;;
8952;SDS011;4511;50.890;8.054;2023-04-03T00:28:38;3.10;;;2.80;;
8952;SDS011;4511;50.890;8.054;2023-04-03T00:31:05;3.50;;;3.20;;
8952;SDS011;4511;50.890;8.054;2023-04-03T00:33:32;3.33;;;2.97;;
8952;SDS011;4511;50.890;8.054;2023-04-03T00:35:59;3.43;;;3.03;;
8952;SDS011;4511;50.890;8.054;2023-04-03T00:38:30;3.77;;;3.00;;
8952;SDS011;4511;50.890;8.054;2023-04-03T00:40:57;3.70;;;3.00;;
8952;SDS011;4511;50.890;8.054;2023-04-03T00:43:24;3.37;;;3.10;;
8952;SDS011;4511;50.890;8.054;2023-04-03T00:45:54;4.50;;;2.97;;
8952;SDS011;4511;50.890;8.054;2023-04-03T00:48:22;5.00;;;3.23;;
8952;SDS011;4511;50.890;8.054;2023-04-03T00:50:52;4.17;;;3.20;;
8952;SDS011;4511;50.890;8.054;2023-04-03T00:53:21;5.87;;;3.27;;
8952;SDS011;4511;50.890;8.054;2023-04-03T00:55:50;4.57;;;3.17;;
8952;SDS011;4511;50.890;8.054;2023-04-03T00:58:19;3.30;;;3.00;;
8952;SDS011;4511;50.890;8.054;2023-04-03T01:00:52;4.13;;;3.73;;
8952;SDS011;4511;50.890;8.054;2023-04-03T01:03:24;3.67;;;3.10;;
8952;SDS011;4511;50.890;8.054;2023-04-03T01:05:50;3.53;;;3.00;;
8952;SDS011;4511;50.890;8.054;2023-04-03T01:08:17;3.20;;;3.00;;
8952;SDS011;4511;50.890;8.054;2023-04-03T01:10:44;3.10;;;2.90;;
8952;SDS011;4511;50.890;8.054;2023-04-03T01:13:18;3.40;;;2.93;;
8952;SDS011;4511;50.890;8.054;2023-04-03T01:15:47;3.10;;;2.90;;
8952;SDS011;4511;50.890;8.054;2023-04-03T01:18:15;3.37;;;3.07;;
8952;SDS011;4511;50.890;8.054;2023-04-03T01:21:05;3.70;;;2.87;;
8952;SDS011;4511;50.890;8.054;2023-04-03T01:24:12;3.10;;;2.90;;
8952;SDS011;4511;50.890;8.054;2023-04-03T01:26:50;3.30;;;3.07;;
8952;SDS011;4511;50.890;8.054;2023-04-03T01:29:17;3.33;;;3.00;;
8952;SDS011;4511;50.890;8.054;2023-04-03T01:31:47;3.73;;;3.37;;
8952;SDS011;4511;50.890;8.054;2023-04-03T01:34:15;4.77;;;3.10;;
8952;SDS011;4511;50.890;8.054;2023-04-03T01:36:42;3.97;;;3.00;;
8952;SDS011;4511;50.890;8.054;2023-04-03T01:39:09;3.33;;;3.07;;
8952;SDS011;4511;50.890;8.054;2023-04-03T01:41:38;4.13;;;3.00;;
8952;SDS011;4511;50.890;8.054;2023-04-03T01:44:05;3.17;;;2.87;;
8952;SDS011;4511;50.890;8.054;2023-04-03T01:46:32;5.53;;;3.00;;
8952;SDS011;4511;50.890;8.054;2023-04-03T01:49:02;5.10;;;3.20;;
8952;SDS011;4511;50.890;8.054;2023-04-03T01:51:29;4.33;;;3.37;;
8952;SDS011;4511;50.890;8.054;2023-04-03T01:53:56;3.20;;;3.00;;
8952;SDS011;4511;50.890;8.054;2023-04-03T01:56:23;3.83;;;3.00;;
8952;SDS011;4511;50.890;8.054;2023-04-03T01:58:50;3.63;;;3.13;;
8952;SDS011;4511;50.890;8.054;2023-04-03T02:01:16;3.10;;;2.90;;
8952;SDS011;4511;50.890;8.054;2023-04-03T02:03:43;4.03;;;2.97;;
8952;SDS011;4511;50.890;8.054;2023-04-03T02:06:11;4.00;;;3.00;;
8952;SDS011;4511;50.890;8.054;2023-04-03T02:08:38;3.33;;;3.00;;
8952;SDS011;4511;50.890;8.054;2023-04-03T02:11:06;5.50;;;3.10;;
8952;SDS011;4511;50.890;8.054;2023-04-03T02:13:33;4.13;;;3.20;;
8952;SDS011;4511;50.890;8.054;2023-04-03T02:16:05;4.40;;;3.27;;
8952;SDS011;4511;50.890;8.054;2023-04-03T02:18:33;4.03;;;3.10;;
8952;SDS011;4511;50.890;8.054;2023-04-03T02:21:00;4.60;;;3.40;;
8952;SDS011;4511;50.890;8.054;2023-04-03T02:23:28;4.30;;;3.20;;
8952;SDS011;4511;50.890;8.054;2023-04-03T02:26:01;5.23;;;3.50;;
8952;SDS011;4511;50.890;8.054;2023-04-03T02:28:30;4.13;;;3.37;;
8952;SDS011;4511;50.890;8.054;2023-04-03T02:30:57;3.63;;;3.27;;
8952;SDS011;4511;50.890;8.054;2023-04-03T02:33:24;3.47;;;3.20;;
8952;SDS011;4511;50.890;8.054;2023-04-03T02:35:52;7.03;;;3.37;;
8952;SDS011;4511;50.890;8.054;2023-04-03T02:38:19;3.50;;;3.30;;
8952;SDS011;4511;50.890;8.054;2023-04-03T02:40:47;5.10;;;3.47;;
8952;SDS011;4511;50.890;8.054;2023-04-03T02:43:14;3.40;;;3.10;;
8952;SDS011;4511;50.890;8.054;2023-04-03T02:45:41;4.03;;;3.30;;
8952;SDS011;4511;50.890;8.054;2023-04-03T02:48:08;4.60;;;3.33;;
8952;SDS011;4511;50.890;8.054;2023-04-03T02:50:34;4.17;;;3.43;;
8952;SDS011;4511;50.890;8.054;2023-04-03T02:53:01;3.37;;;3.17;;
8952;SDS011;4511;50.890;8.054;2023-04-03T02:55:28;3.40;;;3.20;;
8952;SDS011;4511;50.890;8.054;2023-04-03T02:57:56;4.53;;;3.30;;
8952;SDS011;4511;50.890;8.054;2023-04-03T03:00:23;3.57;;;3.27;;
8952;SDS011;4511;50.890;8.054;2023-04-03T03:02:50;4.50;;;3.40;;
8952;SDS011;4511;50.890;8.054;2023-04-03T03:05:17;4.73;;;3.53;;
8952;SDS011;4511;50.890;8.054;2023-04-03T03:07:43;3.83;;;3.13;;
8952;SDS011;4511;50.890;8.054;2023-04-03T03:10:10;6.47;;;3.40;;
8952;SDS011;4511;50.890;8.054;2023-04-03T03:12:37;3.90;;;3.60;;
8952;SDS011;4511;50.890;8.054;2023-04-03T03:15:07;4.67;;;3.23;;
8952;SDS011;4511;50.890;8.054;2023-04-03T03:17:35;4.17;;;3.30;;
8952;SDS011;4511;50.890;8.054;2023-04-03T03:20:02;4.20;;;3.50;;
8952;SDS011;4511;50.890;8.054;2023-04-03T03:22:29;5.40;;;3.53;;
8952;SDS011;4511;50.890;8.054;2023-04-03T03:24:55;4.10;;;3.53;;
8952;SDS011;4511;50.890;8.054;2023-04-03T03:27:22;3.77;;;3.37;;
8952;SDS011;4511;50.890;8.054;2023-04-03T03:29:49;4.93;;;3.43;;
8952;SDS011;4511;50.890;8.054;2023-04-03T03:32:17;3.70;;;3.40;;
8952;SDS011;4511;50.890;8.054;2023-04-03T03:34:44;3.87;;;3.50;;
8952;SDS011;4511;50.890;8.054;2023-04-03T03:37:11;6.07;;;3.67;;
8952;SDS011;4511;50.890;8.054;2023-04-03T03:39:38;4.80;;;3.27;;
8952;SDS011;4511;50.890;8.054;2023-04-03T03:42:05;3.47;;;3.23;;
8952;SDS011;4511;50.890;8.054;2023-04-03T03:44:31;4.17;;;3.40;;
8952;SDS011;4511;50.890;8.054;2023-04-03T03:46:58;3.70;;;3.40;;
8952;SDS011;4511;50.890;8.054;2023-04-03T03:49:27;3.80;;;3.50;;
8952;SDS011;4511;50.890;8.054;2023-04-03T03:51:53;5.57;;;3.50;;
8952;SDS011;4511;50.890;8.054;2023-04-03T03:54:20;4.13;;;3.60;;
8952;SDS011;4511;50.890;8.054;2023-04-03T03:56:47;3.47;;;3.20;;
8952;SDS011;4511;50.890;8.054;2023-04-03T03:59:14;4.87;;;3.60;;
8952;SDS011;4511;50.890;8.054;2023-04-03T04:01:41;6.20;;;3.73;;
8952;SDS011;4511;50.890;8.054;2023-04-03T04:04:08;5.23;;;3.80;;
8952;SDS011;4511;50.890;8.054;2023-04-03T04:06:36;4.53;;;3.63;;
8952;SDS011;4511;50.890;8.054;2023-04-03T04:09:03;4.10;;;3.70;;
8952;SDS011;4511;50.890;8.054;2023-04-03T04:11:30;5.07;;;3.57;;
8952;SDS011;4511;50.890;8.054;2023-04-03T04:13:58;7.33;;;3.53;;
8952;SDS011;4511;50.890;8.054;2023-04-03T04:16:25;3.50;;;3.30;;
8952;SDS011;4511;50.890;8.054;2023-04-03T04:18:51;5.50;;;3.70;;
8952;SDS011;4511;50.890;8.054;2023-04-03T04:21:18;4.40;;;3.23;;
8952;SDS011;4511;50.890;8.054;2023-04-03T04:23:46;7.27;;;3.77;;
8952;SDS011;4511;50.890;8.054;2023-04-03T04:26:13;4.63;;;4.00;;
8952;SDS011;4511;50.890;8.054;2023-04-03T04:28:40;3.70;;;3.40;;
8952;SDS011;4511;50.890;8.054;2023-04-03T04:31:07;4.93;;;3.60;;
8952;SDS011;4511;50.890;8.054;2023-04-03T04:33:34;3.90;;;3.60;;
8952;SDS011;4511;50.890;8.054;2023-04-03T04:36:01;3.80;;;3.40;;
8952;SDS011;4511;50.890;8.054;2023-04-03T04:38:28;4.00;;;3.70;;
8952;SDS011;4511;50.890;8.054;2023-04-03T04:40:56;4.17;;;3.77;;
8952;SDS011;4511;50.890;8.054;2023-04-03T04:43:23;3.80;;;3.50;;
8952;SDS011;4511;50.890;8.054;2023-04-03T04:45:59;6.40;;;3.77;;
8952;SDS011;4511;50.890;8.054;2023-04-03T04:48:27;4.33;;;3.93;;
8952;SDS011;4511;50.890;8.054;2023-04-03T04:50:53;4.30;;;3.80;;
8952;SDS011;4511;50.890;8.054;2023-04-03T04:53:20;3.93;;;3.53;;
8952;SDS011;4511;50.890;8.054;2023-04-03T04:55:47;3.67;;;3.37;;
8952;SDS011;4511;50.890;8.054;2023-04-03T04:58:15;5.13;;;3.70;;
8952;SDS011;4511;50.890;8.054;2023-04-03T05:00:42;4.80;;;3.70;;
8952;SDS011;4511;50.890;8.054;2023-04-03T05:03:09;4.37;;;3.80;;
8952;SDS011;4511;50.890;8.054;2023-04-03T05:05:35;4.37;;;3.80;;
8952;SDS011;4511;50.890;8.054;2023-04-03T05:08:02;5.83;;;3.47;;
8952;SDS011;4511;50.890;8.054;2023-04-03T05:10:29;5.07;;;3.47;;
8952;SDS011;4511;50.890;8.054;2023-04-03T05:12:56;5.80;;;4.13;;
8952;SDS011;4511;50.890;8.054;2023-04-03T05:15:25;4.03;;;3.47;;
8952;SDS011;4511;50.890;8.054;2023-04-03T05:17:51;4.47;;;4.00;;
8952;SDS011;4511;50.890;8.054;2023-04-03T05:20:18;4.10;;;3.80;;
8952;SDS011;4511;50.890;8.054;2023-04-03T05:22:45;5.63;;;3.90;;
8952;SDS011;4511;50.890;8.054;2023-04-03T05:25:12;4.13;;;3.70;;
8952;SDS011;4511;50.890;8.054;2023-04-03T05:27:39;5.60;;;3.80;;
8952;SDS011;4511;50.890;8.054;2023-04-03T05:30:06;4.43;;;3.70;;
8952;SDS011;4511;50.890;8.054;2023-04-03T05:32:35;4.57;;;3.77;;
8952;SDS011;4511;50.890;8.054;2023-04-03T05:35:02;4.30;;;3.70;;
8952;SDS011;4511;50.890;8.054;2023-04-03T05:37:29;4.10;;;3.70;;
8952;SDS011;4511;50.890;8.054;2023-04-03T05:39:56;4.07;;;3.63;;
8952;SDS011;4511;50.890;8.054;2023-04-03T05:42:23;5.07;;;4.40;;
8952;SDS011;4511;50.890;8.054;2023-04-03T05:44:49;4.90;;;3.87;;
8952;SDS011;4511;50.890;8.054;2023-04-03T05:47:16;7.43;;;4.43;;
8952;SDS011;4511;50.890;8.054;2023-04-03T05:49:44;5.17;;;4.30;;
8952;SDS011;4511;50.890;8.054;2023-04-03T05:52:13;6.50;;;4.50;;
8952;SDS011;4511;50.890;8.054;2023-04-03T05:54:46;4.97;;;4.10;;
8952;SDS011;4511;50.890;8.054;2023-04-03T05:57:13;5.33;;;4.70;;
8952;SDS011;4511;50.890;8.054;2023-04-03T05:59:41;4.77;;;4.17;;
8952;SDS011;4511;50.890;8.054;2023-04-03T06:02:09;5.60;;;4.10;;
8952;SDS011;4511;50.890;8.054;2023-04-03T06:04:36;4.80;;;4.20;;
8952;SDS011;4511;50.890;8.054;2023-04-03T06:07:04;5.23;;;4.30;;
8952;SDS011;4511;50.890;8.054;2023-04-03T06:09:33;4.70;;;3.90;;
8952;SDS011;4511;50.890;8.054;2023-04-03T06:12:00;7.70;;;4.23;;
8952;SDS011;4511;50.890;8.054;2023-04-03T06:14:28;7.03;;;4.37;;
8952;SDS011;4511;50.890;8.054;2023-04-03T06:16:54;5.33;;;4.17;;
8952;SDS011;4511;50.890;8.054;2023-04-03T06:19:21;4.80;;;3.70;;
8952;SDS011;4511;50.890;8.054;2023-04-03T06:21:48;5.83;;;4.23;;
8952;SDS011;4511;50.890;8.054;2023-04-03T06:24:17;7.57;;;4.10;;
8952;SDS011;4511;50.890;8.054;2023-04-03T06:26:44;5.47;;;4.17;;
8952;SDS011;4511;50.890;8.054;2023-04-03T06:29:11;7.10;;;5.47;;
8952;SDS011;4511;50.890;8.054;2023-04-03T06:31:38;5.93;;;4.17;;
8952;SDS011;4511;50.890;8.054;2023-04-03T06:34:05;5.23;;;3.80;;
8952;SDS011;4511;50.890;8.054;2023-04-03T06:36:32;4.90;;;3.80;;
8952;SDS011;4511;50.890;8.054;2023-04-03T06:38:59;6.93;;;4.73;;
8952;SDS011;4511;50.890;8.054;2023-04-03T06:41:27;5.40;;;3.90;;
8952;SDS011;4511;50.890;8.054;2023-04-03T06:43:54;6.17;;;3.87;;
8952;SDS011;4511;50.890;8.054;2023-04-03T06:46:23;4.33;;;3.93;;
8952;SDS011;4511;50.890;8.054;2023-04-03T06:48:51;8.57;;;4.13;;
8952;SDS011;4511;50.890;8.054;2023-04-03T06:51:19;5.23;;;4.10;;
8952;SDS011;4511;50.890;8.054;2023-04-03T06:53:47;5.83;;;3.70;;
8952;SDS011;4511;50.890;8.054;2023-04-03T06:56:14;7.17;;;3.30;;
8952;SDS011;4511;50.890;8.054;2023-04-03T06:58:42;4.87;;;3.40;;
8952;SDS011;4511;50.890;8.054;2023-04-03T07:01:10;7.33;;;3.80;;
8952;SDS011;4511;50.890;8.054;2023-04-03T07:03:38;4.87;;;3.80;;
8952;SDS011;4511;50.890;8.054;2023-04-03T07:06:06;4.50;;;3.63;;
8952;SDS011;4511;50.890;8.054;2023-04-03T07:08:33;4.13;;;3.77;;
8952;SDS011;4511;50.890;8.054;2023-04-03T07:11:00;5.80;;;3.53;;
8952;SDS011;4511;50.890;8.054;2023-04-03T07:13:27;4.57;;;3.50;;
8952;SDS011;4511;50.890;8.054;2023-04-03T07:15:55;4.37;;;3.83;;
8952;SDS011;4511;50.890;8.054;2023-04-03T07:18:23;5.00;;;4.07;;
8952;SDS011;4511;50.890;8.054;2023-04-03T07:20:50;5.27;;;3.87;;
8952;SDS011;4511;50.890;8.054;2023-04-03T07:23:17;6.27;;;4.33;;
8952;SDS011;4511;50.890;8.054;2023-04-03T07:25:44;5.60;;;4.10;;
8952;SDS011;4511;50.890;8.054;2023-04-03T07:28:12;4.67;;;3.90;;
8952;SDS011;4511;50.890;8.054;2023-04-03T07:30:42;6.67;;;4.00;;
8952;SDS011;4511;50.890;8.054;2023-04-03T07:33:11;4.87;;;3.70;;
8952;SDS011;4511;50.890;8.054;2023-04-03T07:35:39;6.03;;;3.83;;
8952;SDS011;4511;50.890;8.054;2023-04-03T07:38:06;4.93;;;3.73;;
8952;SDS011;4511;50.890;8.054;2023-04-03T07:40:33;3.83;;;3.47;;
8952;SDS011;4511;50.890;8.054;2023-04-03T07:43:00;4.30;;;3.63;;
8952;SDS011;4511;50.890;8.054;2023-04-03T07:45:27;4.93;;;4.43;;
8952;SDS011;4511;50.890;8.054;2023-04-03T07:47:54;5.33;;;4.10;;
8952;SDS011;4511;50.890;8.054;2023-04-03T07:50:22;7.33;;;3.90;;
8952;SDS011;4511;50.890;8.054;2023-04-03T07:52:49;4.97;;;3.97;;
8952;SDS011;4511;50.890;8.054;2023-04-03T07:55:19;4.63;;;3.90;;
8952;SDS011;4511;50.890;8.054;2023-04-03T07:57:46;6.17;;;4.37;;
8952;SDS011;4511;50.890;8.054;2023-04-03T08:00:13;6.30;;;4.40;;
8952;SDS011;4511;50.890;8.054;2023-04-03T08:02:42;4.97;;;3.90;;
8952;SDS011;4511;50.890;8.054;2023-04-03T08:05:15;4.27;;;3.70;;
8952;SDS011;4511;50.890;8.054;2023-04-03T08:07:43;6.77;;;3.97;;
8952;SDS011;4511;50.890;8.054;2023-04-03T08:10:10;4.73;;;3.90;;
8952;SDS011;4511;50.890;8.054;2023-04-03T08:12:37;5.00;;;3.87;;
8952;SDS011;4511;50.890;8.054;2023-04-03T08:15:04;8.10;;;4.03;;
8952;SDS011;4511;50.890;8.054;2023-04-03T08:17:32;4.53;;;3.73;;
8952;SDS011;4511;50.890;8.054;2023-04-03T08:19:58;5.80;;;3.90;;
8952;SDS011;4511;50.890;8.054;2023-04-03T08:22:25;6.80;;;4.00;;
8952;SDS011;4511;50.890;8.054;2023-04-03T08:24:53;4.23;;;3.83;;
8952;SDS011;4511;50.890;8.054;2023-04-03T08:27:20;6.40;;;4.30;;
8952;SDS011;4511;50.890;8.054;2023-04-03T08:29:47;6.70;;;3.80;;
8952;SDS011;4511;50.890;8.054;2023-04-03T08:32:13;4.93;;;3.53;;
8952;SDS011;4511;50.890;8.054;2023-04-03T08:34:40;4.50;;;3.60;;
8952;SDS011;4511;50.890;8.054;2023-04-03T08:37:07;3.93;;;3.50;;
8952;SDS011;4511;50.890;8.054;2023-04-03T08:39:34;4.57;;;3.70;;
8952;SDS011;4511;50.890;8.054;2023-04-03T08:42:05;3.70;;;3.50;;
8952;SDS011;4511;50.890;8.054;2023-04-03T08:44:39;4.67;;;3.50;;
8952;SDS011;4511;50.890;8.054;2023-04-03T08:47:18;4.07;;;3.33;;
8952;SDS011;4511;50.890;8.054;2023-04-03T08:49:49;3.50;;;3.20;;
8952;SDS011;4511;50.890;8.054;2023-04-03T08:52:20;3.53;;;3.30;;
8952;SDS011;4511;50.890;8.054;2023-04-03T08:54:51;3.90;;;3.17;;
8952;SDS011;4511;50.890;8.054;2023-04-03T08:57:26;6.37;;;3.30;;
8952;SDS011;4511;50.890;8.054;2023-04-03T08:59:57;6.77;;;3.57;;
8952;SDS011;4511;50.890;8.054;2023-04-03T09:02:27;3.20;;;2.90;;
8952;SDS011;4511;50.890;8.054;2023-04-03T09:04:57;3.50;;;3.20;;
8952;SDS011;4511;50.890;8.054;2023-04-03T09:07:27;5.80;;;3.27;;
8952;SDS011;4511;50.890;8.054;2023-04-03T09:10:02;5.00;;;2.90;;
8952;SDS011;4511;50.890;8.054;2023-04-03T09:12:33;4.40;;;2.87;;
8952;SDS011;4511;50.890;8.054;2023-04-03T09:15:06;3.33;;;2.90;;
8952;SDS011;4511;50.890;8.054;2023-04-03T09:17:41;4.07;;;3.13;;
8952;SDS011;4511;50.890;8.054;2023-04-03T09:20:16;3.73;;;3.07;;
8952;SDS011;4511;50.890;8.054;2023-04-03T09:22:48;4.27;;;3.20;;
8952;SDS011;4511;50.890;8.054;2023-04-03T09:25:18;4.37;;;3.07;;
8952;SDS011;4511;50.890;8.054;2023-04-03T09:27:49;3.20;;;3.00;;
8952;SDS011;4511;50.890;8.054;2023-04-03T09:30:17;3.00;;;2.80;;
8952;SDS011;4511;50.890;8.054;2023-04-03T09:32:45;4.53;;;3.23;;
8952;SDS011;4511;50.890;8.054;2023-04-03T09:35:16;4.00;;;2.90;;
8952;SDS011;4511;50.890;8.054;2023-04-03T09:37:47;5.07;;;3.00;;
8952;SDS011;4511;50.890;8.054;2023-04-03T09:43:02;3.63;;;2.90;;
8952;SDS011;4511;50.890;8.054;2023-04-03T09:45:50;3.73;;;2.80;;
8952;SDS011;4511;50.890;8.054;2023-04-03T09:48:18;4.70;;;2.80;;
8952;SDS011;4511;50.890;8.054;2023-04-03T09:50:59;3.50;;;2.73;;
8952;SDS011;4511;50.890;8.054;2023-04-03T09:53:35;2.83;;;2.50;;
8952;SDS011;4511;50.890;8.054;2023-04-03T09:56:04;2.87;;;2.67;;
8952;SDS011;4511;50.890;8.054;2023-04-03T09:58:48;2.90;;;2.50;;
8952;SDS011;4511;50.890;8.054;2023-04-03T10:01:26;3.77;;;2.87;;
8952;SDS011;4511;50.890;8.054;2023-04-03T10:04:04;3.03;;;2.70;;
8952;SDS011;4511;50.890;8.054;2023-04-03T10:06:34;2.80;;;2.60;;
8952;SDS011;4511;50.890;8.054;2023-04-03T10:09:03;3.77;;;2.50;;
8952;SDS011;4511;50.890;8.054;2023-04-03T10:11:32;2.80;;;2.60;;
8952;SDS011;4511;50.890;8.054;2023-04-03T10:14:00;3.10;;;2.70;;
8952;SDS011;4511;50.890;8.054;2023-04-03T10:16:32;3.10;;;2.60;;
8952;SDS011;4511;50.890;8.054;2023-04-03T10:19:18;2.83;;;2.63;;
8952;SDS011;4511;50.890;8.054;2023-04-03T10:21:57;2.80;;;2.60;;
8952;SDS011;4511;50.890;8.054;2023-04-03T10:24:30;3.57;;;2.73;;
8952;SDS011;4511;50.890;8.054;2023-04-03T10:27:04;2.93;;;2.63;;
8952;SDS011;4511;50.890;8.054;2023-04-03T10:29:39;2.50;;;2.30;;
8952;SDS011;4511;50.890;8.054;2023-04-03T10:32:15;4.20;;;2.70;;
8952;SDS011;4511;50.890;8.054;2023-04-03T10:34:54;2.70;;;2.47;;
8952;SDS011;4511;50.890;8.054;2023-04-03T10:37:29;3.23;;;2.60;;
8952;SDS011;4511;50.890;8.054;2023-04-03T10:40:02;2.90;;;2.37;;
8952;SDS011;4511;50.890;8.054;2023-04-03T10:42:50;2.60;;;2.37;;
8952;SDS011;4511;50.890;8.054;2023-04-03T10:45:26;3.53;;;2.33;;
8952;SDS011;4511;50.890;8.054;2023-04-03T10:48:00;3.73;;;2.47;;
8952;SDS011;4511;50.890;8.054;2023-04-03T10:50:36;2.97;;;2.50;;
8952;SDS011;4511;50.890;8.054;2023-04-03T10:53:10;2.50;;;2.30;;
8952;SDS011;4511;50.890;8.054;2023-04-03T10:55:43;2.70;;;2.23;;
8952;SDS011;4511;50.890;8.054;2023-04-03T10:58:18;4.23;;;2.40;;
8952;SDS011;4511;50.890;8.054;2023-04-03T11:00:52;4.20;;;2.30;;
8952;SDS011;4511;50.890;8.054;2023-04-03T11:03:25;2.30;;;2.10;;
8952;SDS011;4511;50.890;8.054;2023-04-03T11:05:56;2.40;;;2.20;;
8952;SDS011;4511;50.890;8.054;2023-04-03T11:08:26;4.77;;;2.57;;
8952;SDS011;4511;50.890;8.054;2023-04-03T11:10:59;2.67;;;2.47;;
8952;SDS011;4511;50.890;8.054;2023-04-03T11:13:31;2.73;;;2.40;;
8952;SDS011;4511;50.890;8.054;2023-04-03T11:16:02;3.30;;;2.33;;
8952;SDS011;4511;50.890;8.054;2023-04-03T11:18:32;2.80;;;2.57;;
8952;SDS011;4511;50.890;8.054;2023-04-03T11:21:02;3.73;;;2.53;;
8952;SDS011;4511;50.890;8.054;2023-04-03T11:23:34;2.60;;;2.40;;
8952;SDS011;4511;50.890;8.054;2023-04-03T11:26:07;3.37;;;2.50;;
8952;SDS011;4511;50.890;8.054;2023-04-03T11:28:36;2.70;;;2.50;;
8952;SDS011;4511;50.890;8.054;2023-04-03T11:31:08;2.50;;;2.30;;
8952;SDS011;4511;50.890;8.054;2023-04-03T11:33:44;2.67;;;2.47;;
8952;SDS011;4511;50.890;8.054;2023-04-03T11:36:19;2.60;;;2.40;;
8952;SDS011;4511;50.890;8.054;2023-04-03T11:38:49;2.40;;;2.20;;
8952;SDS011;4511;50.890;8.054;2023-04-03T11:41:22;2.30;;;2.10;;
8952;SDS011;4511;50.890;8.054;2023-04-03T11:43:56;2.60;;;2.40;;
8952;SDS011;4511;50.890;8.054;2023-04-03T11:55:43;3.53;;;2.27;;
8952;SDS011;4511;50.890;8.054;2023-04-03T11:58:40;3.13;;;2.30;;
8952;SDS011;4511;50.890;8.054;2023-04-03T12:01:44;2.47;;;2.27;;
8952;SDS011;4511;50.890;8.054;2023-04-03T12:04:13;2.93;;;2.60;;
8952;SDS011;4511;50.890;8.054;2023-04-03T12:12:43;3.70;;;2.40;;
8952;SDS011;4511;50.890;8.054;2023-04-03T12:18:36;2.30;;;2.10;;
8952;SDS011;4511;50.890;8.054;2023-04-03T12:21:08;2.30;;;2.10;;
8952;SDS011;4511;50.890;8.054;2023-04-03T12:23:35;2.70;;;2.50;;
8952;SDS011;4511;50.890;8.054;2023-04-03T12:26:18;2.73;;;2.30;;
8952;SDS011;4511;50.890;8.054;2023-04-03T12:28:48;2.27;;;2.10;;
8952;SDS011;4511;50.890;8.054;2023-04-03T12:31:17;2.30;;;2.10;;
8952;SDS011;4511;50.890;8.054;2023-04-03T12:33:51;2.67;;;2.20;;
8952;SDS011;4511;50.890;8.054;2023-04-03T12:36:28;2.50;;;2.30;;
8952;SDS011;4511;50.890;8.054;2023-04-03T12:39:09;2.30;;;2.10;;
8952;SDS011;4511;50.890;8.054;2023-04-03T12:41:49;2.43;;;2.20;;
8952;SDS011;4511;50.890;8.054;2023-04-03T12:44:26;3.07;;;2.13;;
8952;SDS011;4511;50.890;8.054;2023-04-03T12:47:07;3.63;;;2.20;;
8952;SDS011;4511;50.890;8.054;2023-04-03T12:49:49;2.87;;;2.10;;
8952;SDS011;4511;50.890;8.054;2023-04-03T12:52:19;3.37;;;2.00;;
8952;SDS011;4511;50.890;8.054;2023-04-03T12:54:52;2.20;;;1.93;;
8952;SDS011;4511;50.890;8.054;2023-04-03T12:57:21;2.17;;;1.80;;
8952;SDS011;4511;50.890;8.054;2023-04-03T12:59:52;2.57;;;1.77;;
8952;SDS011;4511;50.890;8.054;2023-04-03T13:02:21;2.93;;;1.80;;
8952;SDS011;4511;50.890;8.054;2023-04-03T13:04:53;6.53;;;2.97;;
8952;SDS011;4511;50.890;8.054;2023-04-03T13:07:23;2.57;;;2.10;;
8952;SDS011;4511;50.890;8.054;2023-04-03T13:10:01;4.50;;;2.20;;
8952;SDS011;4511;50.890;8.054;2023-04-03T13:12:44;2.90;;;2.10;;
8952;SDS011;4511;50.890;8.054;2023-04-03T13:15:15;3.07;;;2.60;;
8952;SDS011;4511;50.890;8.054;2023-04-03T13:17:44;2.20;;;2.00;;
8952;SDS011;4511;50.890;8.054;2023-04-03T13:20:17;3.07;;;2.30;;
8952;SDS011;4511;50.890;8.054;2023-04-03T13:22:48;2.77;;;2.10;;
8952;SDS011;4511;50.890;8.054;2023-04-03T13:25:18;2.57;;;1.80;;
8952;SDS011;4511;50.890;8.054;2023-04-03T13:27:46;2.73;;;2.00;;
8952;SDS011;4511;50.890;8.054;2023-04-03T13:33:02;3.60;;;2.37;;
8952;SDS011;4511;50.890;8.054;2023-04-03T13:35:36;2.20;;;1.90;;
8952;SDS011;4511;50.890;8.054;2023-04-03T13:38:06;2.20;;;2.00;;
8952;SDS011;4511;50.890;8.054;2023-04-03T13:40:48;1.83;;;1.73;;
8952;SDS011;4511;50.890;8.054;2023-04-03T13:43:18;2.27;;;1.70;;
8952;SDS011;4511;50.890;8.054;2023-04-03T13:45:59;2.43;;;1.90;;
8952;SDS011;4511;50.890;8.054;2023-04-03T13:48:34;2.97;;;1.90;;
8952;SDS011;4511;50.890;8.054;2023-04-03T13:51:16;3.27;;;2.33;;
8952;SDS011;4511;50.890;8.054;2023-04-03T13:53:47;2.07;;;1.87;;
8952;SDS011;4511;50.890;8.054;2023-04-03T13:56:19;1.93;;;1.80;;
8952;SDS011;4511;50.890;8.054;2023-04-03T13:58:58;2.70;;;1.90;;
8952;SDS011;4511;50.890;8.054;2023-04-03T14:01:33;3.37;;;1.97;;
8952;SDS011;4511;50.890;8.054;2023-04-03T14:04:11;3.17;;;2.10;;
8952;SDS011;4511;50.890;8.054;2023-04-03T14:06:42;2.20;;;2.00;;
8952;SDS011;4511;50.890;8.054;2023-04-03T14:09:09;3.20;;;2.20;;
8952;SDS011;4511;50.890;8.054;2023-04-03T14:11:36;2.60;;;2.20;;
8952;SDS011;4511;50.890;8.054;2023-04-03T14:14:05;3.80;;;2.27;;
8952;SDS011;4511;50.890;8.054;2023-04-03T14:16:37;3.87;;;2.10;;
8952;SDS011;4511;50.890;8.054;2023-04-03T14:19:07;3.37;;;1.80;;
8952;SDS011;4511;50.890;8.054;2023-04-03T14:21:44;2.57;;;2.00;;
8952;SDS011;4511;50.890;8.054;2023-04-03T14:24:10;2.07;;;1.97;;
8952;SDS011;4511;50.890;8.054;2023-04-03T14:26:37;2.67;;;2.10;;
8952;SDS011;4511;50.890;8.054;2023-04-03T14:29:04;7.60;;;2.30;;
8952;SDS011;4511;50.890;8.054;2023-04-03T14:31:31;6.10;;;2.30;;
8952;SDS011;4511;50.890;8.054;2023-04-03T14:33:57;2.20;;;2.10;;
8952;SDS011;4511;50.890;8.054;2023-04-03T14:36:25;3.10;;;2.10;;
8952;SDS011;4511;50.890;8.054;2023-04-03T14:38:55;2.23;;;2.03;;
8952;SDS011;4511;50.890;8.054;2023-04-03T14:41:23;2.20;;;2.00;;
8952;SDS011;4511;50.890;8.054;2023-04-03T14:43:51;2.20;;;2.03;;
8952;SDS011;4511;50.890;8.054;2023-04-03T14:46:19;3.13;;;1.90;;
8952;SDS011;4511;50.890;8.054;2023-04-03T14:48:51;2.30;;;2.10;;
8952;SDS011;4511;50.890;8.054;2023-04-03T14:51:18;3.50;;;2.03;;
8952;SDS011;4511;50.890;8.054;2023-04-03T14:53:46;2.53;;;2.33;;
8952;SDS011;4511;50.890;8.054;2023-04-03T14:56:15;2.30;;;2.10;;
8952;SDS011;4511;50.890;8.054;2023-04-03T14:58:46;2.40;;;2.20;;
8952;SDS011;4511;50.890;8.054;2023-04-03T15:01:15;2.93;;;2.50;;
8952;SDS011;4511;50.890;8.054;2023-04-03T15:03:42;3.33;;;2.20;;
8952;SDS011;4511;50.890;8.054;2023-04-03T15:06:10;2.30;;;2.10;;
8952;SDS011;4511;50.890;8.054;2023-04-03T15:08:38;2.20;;;2.00;;
8952;SDS011;4511;50.890;8.054;2023-04-03T15:11:07;3.33;;;2.43;;
8952;SDS011;4511;50.890;8.054;2023-04-03T15:13:36;3.30;;;2.70;;
8952;SDS011;4511;50.890;8.054;2023-04-03T15:16:03;2.90;;;2.70;;
8952;SDS011;4511;50.890;8.054;2023-04-03T15:18:32;3.53;;;3.23;;
8952;SDS011;4511;50.890;8.054;2023-04-03T15:21:03;3.00;;;2.70;;
8952;SDS011;4511;50.890;8.054;2023-04-03T15:23:30;2.53;;;2.40;;
8952;SDS011;4511;50.890;8.054;2023-04-03T15:25:57;2.77;;;2.50;;
8952;SDS011;4511;50.890;8.054;2023-04-03T15:28:25;4.07;;;2.50;;
8952;SDS011;4511;50.890;8.054;2023-04-03T15:30:57;3.80;;;2.70;;
8952;SDS011;4511;50.890;8.054;2023-04-03T15:33:25;2.80;;;2.60;;
8952;SDS011;4511;50.890;8.054;2023-04-03T15:35:52;2.93;;;2.73;;
8952;SDS011;4511;50.890;8.054;2023-04-03T15:38:18;2.70;;;2.50;;
8952;SDS011;4511;50.890;8.054;2023-04-03T15:40:45;3.10;;;2.50;;
8952;SDS011;4511;50.890;8.054;2023-04-03T15:43:13;2.93;;;2.73;;
8952;SDS011;4511;50.890;8.054;2023-04-03T15:45:41;2.87;;;2.67;;
8952;SDS011;4511;50.890;8.054;2023-04-03T15:48:11;1.90;;;1.70;;
8952;SDS011;4511;50.890;8.054;2023-04-03T15:50:38;4.30;;;2.87;;
8952;SDS011;4511;50.890;8.054;2023-04-03T15:53:05;2.90;;;2.33;;
8952;SDS011;4511;50.890;8.054;2023-04-03T15:55:34;2.77;;;1.80;;